Time;durP1;ratioP1;P1;durP2;ratioP2;P2;SDS_P1;SDS_P2;PMS_P1;PMS_P2;Temp;Humidity;BMP_temperature;BMP_pressure;BME280_temperature;BME280_humidity;BME280_pressure;Samples;Min_cycle;Max_cycle;Signal;HPM_P1;HPM_P2
2022/11/07 00:01:22;;;;;;;2.92;2.00;;;12.90;99.90;;;;;;5047910;28;20445;-73
2022/11/07 00:03:48;;;;;;;10.82;1.52;;;12.80;99.90;;;;;;5040373;28;20461;-77
2022/11/07 00:06:14;;;;;;;6.60;1.77;;;12.80;99.90;;;;;;5042699;28;20021;-72
2022/11/07 00:08:39;;;;;;;6.78;1.77;;;12.70;99.90;;;;;;5040532;28;20041;-74
2022/11/07 00:11:06;;;;;;;8.68;1.90;;;12.80;99.90;;;;;;5042134;28;20035;-74
2022/11/07 00:13:32;;;;;;;4.30;1.77;;;12.70;99.90;;;;;;5044588;28;20025;-75
2022/11/07 00:16:04;;;;;;;3.72;1.80;;;12.80;99.90;;;;;;5045100;28;20029;-76
2022/11/07 00:18:30;;;;;;;7.85;2.08;;;12.70;99.90;;;;;;5040352;28;20041;-75
2022/11/07 00:20:59;;;;;;;9.52;2.03;;;12.70;99.90;;;;;;5040945;28;20135;-76
2022/11/07 00:23:27;;;;;;;6.32;1.70;;;12.60;99.90;;;;;;5031924;28;20040;-74
2022/11/07 00:25:52;;;;;;;8.55;1.73;;;12.70;99.90;;;;;;5040144;28;20092;-76
2022/11/07 00:28:18;;;;;;;2.88;1.70;;;12.70;99.90;;;;;;5038490;28;20401;-72
2022/11/07 00:30:44;;;;;;;2.42;1.60;;;12.60;99.90;;;;;;5041087;28;20362;-76
2022/11/07 00:33:14;;;;;;;5.93;2.10;;;12.60;99.90;;;;;;5041354;28;20113;-76
2022/11/07 00:35:41;;;;;;;3.75;1.50;;;12.70;99.90;;;;;;5040923;28;20104;-76
2022/11/07 00:38:09;;;;;;;4.13;1.90;;;12.70;99.90;;;;;;5045236;28;20035;-74
2022/11/07 00:40:34;;;;;;;7.10;1.73;;;12.70;99.90;;;;;;5048881;28;20031;-74
2022/11/07 00:43:00;;;;;;;3.80;2.05;;;12.60;99.90;;;;;;5042344;28;20025;-76
2022/11/07 00:45:31;;;;;;;5.53;1.75;;;12.60;99.90;;;;;;5047506;28;20021;-73
2022/11/07 00:47:56;;;;;;;6.60;2.03;;;12.60;99.90;;;;;;5045473;28;20620;-77
2022/11/07 00:50:24;;;;;;;4.90;1.88;;;12.70;99.90;;;;;;5043702;28;20029;-73
2022/11/07 00:52:50;;;;;;;6.88;2.20;;;12.70;99.90;;;;;;5043087;28;20022;-74
2022/11/07 00:55:16;;;;;;;5.07;1.90;;;12.70;99.90;;;;;;5042287;28;20082;-75
2022/11/07 00:57:41;;;;;;;4.20;1.75;;;12.60;99.90;;;;;;5046965;28;20041;-74
2022/11/07 01:00:07;;;;;;;7.05;2.20;;;12.70;99.90;;;;;;5042205;28;20031;-72
2022/11/07 01:02:33;;;;;;;2.83;1.75;;;12.70;99.90;;;;;;5044133;28;20043;-73
2022/11/07 01:05:10;;;;;;;5.97;2.67;;;12.80;99.90;;;;;;5046249;28;20021;-74
2022/11/07 01:07:39;;;;;;;3.25;1.75;;;12.80;99.90;;;;;;5043350;28;20111;-72
2022/11/07 01:10:06;;;;;;;9.65;2.00;;;12.80;99.90;;;;;;5051206;28;20028;-75
2022/11/07 01:12:35;;;;;;;5.78;1.88;;;12.70;99.90;;;;;;5048964;28;20116;-73
2022/11/07 01:15:02;;;;;;;7.82;2.03;;;12.60;99.90;;;;;;5049960;28;20051;-72
2022/11/07 01:17:28;;;;;;;3.88;1.80;;;12.70;99.90;;;;;;5044399;28;20025;-73
2022/11/07 01:19:56;;;;;;;7.88;2.20;;;12.80;99.90;;;;;;5041742;28;20136;-73
2022/11/07 01:22:22;;;;;;;10.90;2.17;;;12.80;99.90;;;;;;5042854;28;20509;-73
2022/11/07 01:24:47;;;;;;;3.72;2.22;;;12.80;99.90;;;;;;5040856;28;20052;-77
2022/11/07 01:27:13;;;;;;;4.50;2.05;;;12.70;99.90;;;;;;5045341;28;20072;-75
2022/11/07 01:29:38;;;;;;;8.32;2.30;;;12.70;99.90;;;;;;5040188;28;20108;-73
2022/11/07 01:32:06;;;;;;;4.07;1.60;;;12.60;99.90;;;;;;5041815;28;20485;-76
2022/11/07 01:34:32;;;;;;;6.22;2.13;;;12.60;99.90;;;;;;5039176;28;20108;-76
2022/11/07 01:36:58;;;;;;;4.50;2.08;;;12.60;99.90;;;;;;5046549;28;20103;-75
2022/11/07 01:39:23;;;;;;;7.43;1.65;;;12.50;99.90;;;;;;5041916;28;20025;-72
2022/11/07 01:41:49;;;;;;;4.80;2.00;;;12.50;99.90;;;;;;5043064;28;20033;-77
2022/11/07 01:44:15;;;;;;;3.58;1.70;;;12.50;99.90;;;;;;5039768;28;20032;-74
2022/11/07 01:46:43;;;;;;;7.38;1.90;;;12.40;99.90;;;;;;5045173;28;20104;-72
2022/11/07 01:49:27;;;;;;;6.82;1.90;;;12.40;99.90;;;;;;5042096;28;20025;-74
2022/11/07 01:52:07;;;;;;;4.57;2.03;;;12.40;99.90;;;;;;5035854;28;20389;-73
2022/11/07 01:54:57;;;;;;;2.97;1.52;;;12.30;99.90;;;;;;5042612;28;20113;-72
2022/11/07 01:57:53;;;;;;;5.18;1.65;;;12.30;99.90;;;;;;5043825;28;20096;-76
2022/11/07 02:00:21;;;;;;;4.35;1.92;;;12.30;99.90;;;;;;5045824;28;20744;-72
2022/11/07 02:02:53;;;;;;;7.10;1.80;;;12.30;99.90;;;;;;5039352;28;20308;-73
2022/11/07 02:05:46;;;;;;;6.60;1.83;;;12.20;99.90;;;;;;5041078;28;20014;-76
2022/11/07 02:08:13;;;;;;;11.02;2.28;;;12.20;99.90;;;;;;5029343;28;20033;-75
2022/11/07 02:10:41;;;;;;;5.07;1.75;;;12.20;99.90;;;;;;5045206;28;20044;-73
2022/11/07 02:13:07;;;;;;;7.45;1.65;;;12.20;99.90;;;;;;5042623;28;20450;-76
2022/11/07 02:15:36;;;;;;;5.28;1.80;;;12.30;99.90;;;;;;5037515;28;20021;-76
2022/11/07 02:18:02;;;;;;;6.95;1.80;;;12.30;99.90;;;;;;5038922;28;20473;-72
2022/11/07 02:20:30;;;;;;;5.80;1.98;;;12.20;99.90;;;;;;5041956;28;20029;-77
2022/11/07 02:22:57;;;;;;;6.18;1.55;;;12.20;99.90;;;;;;5038585;28;20037;-77
2022/11/07 02:25:26;;;;;;;7.60;2.00;;;12.10;99.90;;;;;;5028507;28;20033;-72
2022/11/07 02:27:56;;;;;;;6.95;1.75;;;12.10;99.90;;;;;;5039237;28;20029;-74
2022/11/07 02:30:26;;;;;;;9.80;1.92;;;12.20;99.90;;;;;;5040314;28;20025;-75
2022/11/07 02:32:52;;;;;;;8.13;1.50;;;12.10;99.90;;;;;;5042506;28;20041;-73
2022/11/07 02:35:46;;;;;;;8.10;2.38;;;12.10;99.90;;;;;;5039351;28;20025;-72
2022/11/07 02:38:16;;;;;;;8.80;1.90;;;12.20;99.90;;;;;;5046372;28;20052;-72
2022/11/07 02:40:44;;;;;;;9.20;2.15;;;12.20;99.90;;;;;;5033462;28;20021;-72
2022/11/07 02:43:12;;;;;;;9.63;1.73;;;12.10;99.90;;;;;;5044858;28;20112;-75
2022/11/07 02:45:42;;;;;;;6.88;1.80;;;12.10;99.90;;;;;;5044279;28;20017;-75
2022/11/07 02:48:09;;;;;;;4.95;2.00;;;12.20;99.90;;;;;;5042816;28;20028;-76
2022/11/07 02:50:35;;;;;;;8.73;1.95;;;12.20;99.90;;;;;;5037377;28;20018;-73
2022/11/07 02:53:00;;;;;;;7.72;2.22;;;12.20;99.90;;;;;;5043963;28;20022;-72
2022/11/07 02:55:28;;;;;;;9.98;2.13;;;12.20;99.90;;;;;;5046673;28;20120;-74
2022/11/07 02:57:54;;;;;;;10.25;2.45;;;12.20;99.90;;;;;;5044011;28;20126;-72
2022/11/07 03:00:19;;;;;;;5.13;2.13;;;12.20;99.90;;;;;;5045087;28;20084;-73
2022/11/07 03:02:48;;;;;;;6.43;1.88;;;12.20;99.90;;;;;;5042430;28;20555;-73
2022/11/07 03:05:18;;;;;;;4.55;1.63;;;12.30;99.90;;;;;;5048799;28;20134;-71
2022/11/07 03:07:48;;;;;;;5.00;1.52;;;12.30;99.90;;;;;;5049591;28;20029;-72
2022/11/07 03:10:15;;;;;;;5.82;2.05;;;12.20;99.90;;;;;;5044916;28;20040;-73
2022/11/07 03:12:41;;;;;;;6.80;1.77;;;12.10;99.90;;;;;;5051764;28;20045;-72
2022/11/07 03:15:08;;;;;;;6.88;1.83;;;12.10;99.90;;;;;;5044798;28;20033;-76
2022/11/07 03:17:36;;;;;;;12.05;2.05;;;12.20;99.90;;;;;;5042683;28;20068;-74
2022/11/07 03:20:02;;;;;;;5.63;2.00;;;12.10;99.90;;;;;;5048016;28;20037;-72
2022/11/07 03:22:30;;;;;;;5.70;2.08;;;12.10;99.90;;;;;;5039399;28;20029;-74
2022/11/07 03:24:56;;;;;;;2.38;1.52;;;12.10;99.90;;;;;;5043142;28;20021;-73
2022/11/07 03:27:21;;;;;;;4.07;1.73;;;12.00;99.90;;;;;;5040017;28;20026;-73
2022/11/07 03:29:47;;;;;;;7.63;2.53;;;12.20;99.90;;;;;;5049768;28;20013;-74
2022/11/07 03:32:13;;;;;;;5.47;1.90;;;12.20;99.90;;;;;;5043737;28;20024;-73
2022/11/07 03:34:40;;;;;;;9.25;2.28;;;12.30;99.90;;;;;;5043691;28;20032;-73
2022/11/07 03:37:08;;;;;;;7.40;1.77;;;12.30;99.90;;;;;;5046060;28;20044;-72
2022/11/07 03:39:36;;;;;;;6.28;2.05;;;12.40;99.90;;;;;;5050089;28;20824;-73
2022/11/07 03:42:04;;;;;;;11.73;2.15;;;12.30;99.90;;;;;;5042913;28;20037;-73
2022/11/07 03:44:30;;;;;;;4.75;1.60;;;12.40;99.90;;;;;;5043168;28;20443;-72
2022/11/07 03:46:58;;;;;;;7.85;2.03;;;12.30;99.90;;;;;;5039754;28;20061;-73
2022/11/07 03:49:26;;;;;;;9.40;2.00;;;12.30;99.90;;;;;;5041793;28;20020;-72
2022/11/07 03:51:54;;;;;;;6.85;1.85;;;12.30;99.90;;;;;;5045089;28;20069;-72
2022/11/07 03:54:23;;;;;;;5.85;1.60;;;12.30;99.90;;;;;;5043970;28;20025;-73
2022/11/07 03:56:48;;;;;;;11.52;2.00;;;12.30;99.90;;;;;;5040751;28;20060;-73
2022/11/07 03:59:14;;;;;;;2.88;1.40;;;12.40;99.90;;;;;;5048002;28;20032;-73
2022/11/07 04:01:43;;;;;;;6.70;1.80;;;12.30;99.90;;;;;;5042620;28;20032;-72
2022/11/07 04:04:11;;;;;;;9.65;1.63;;;12.40;99.90;;;;;;5049772;28;20465;-74
2022/11/07 04:06:37;;;;;;;6.93;1.77;;;12.20;99.90;;;;;;5046578;28;20354;-72
2022/11/07 04:09:03;;;;;;;8.00;2.13;;;12.30;99.90;;;;;;5043593;28;20032;-76
2022/11/07 04:17:18;;;;;;;6.40;1.85;;;12.40;99.90;;;;;;5043643;28;20040;-73
2022/11/07 04:19:47;;;;;;;11.57;2.50;;;12.30;99.90;;;;;;5040247;28;20108;-74
2022/11/07 04:22:13;;;;;;;13.68;2.20;;;12.30;99.90;;;;;;5043960;28;20540;-73
2022/11/07 04:24:40;;;;;;;16.73;2.28;;;12.20;99.90;;;;;;5046425;28;20025;-72
2022/11/07 04:29:54;;;;;;;13.60;2.63;;;12.30;99.90;;;;;;5043947;28;20063;-74
2022/11/07 04:32:20;;;;;;;7.25;2.13;;;12.20;99.90;;;;;;5042095;28;20051;-73
2022/11/07 04:34:45;;;;;;;5.75;1.50;;;12.20;99.90;;;;;;5044733;28;20045;-73
2022/11/07 04:37:11;;;;;;;12.05;1.75;;;12.30;99.90;;;;;;5042085;28;20025;-76
2022/11/07 04:39:39;;;;;;;13.52;1.90;;;12.30;99.90;;;;;;5043807;28;20033;-73
2022/11/07 04:42:04;;;;;;;10.30;2.03;;;12.30;99.90;;;;;;5041658;28;20041;-76
2022/11/07 04:44:30;;;;;;;14.48;2.08;;;12.40;99.90;;;;;;5042748;28;20071;-72
2022/11/07 04:46:56;;;;;;;12.15;1.58;;;12.40;99.90;;;;;;5041082;28;20029;-77
2022/11/07 04:49:21;;;;;;;8.93;2.00;;;12.50;99.90;;;;;;5042699;28;20025;-76
2022/11/07 04:51:54;;;;;;;6.25;1.95;;;12.60;99.90;;;;;;5041097;28;20025;-73
2022/11/07 04:54:20;;;;;;;;;;;12.60;99.90;;;;;;5044036;28;20075;-75
2022/11/07 04:56:45;;;;;;;9.85;2.00;;;12.60;99.90;;;;;;5041050;28;19909;-74
2022/11/07 04:59:11;;;;;;;9.18;2.17;;;12.70;99.90;;;;;;5039675;28;20385;-72
2022/11/07 05:01:36;;;;;;;5.28;1.58;;;12.70;99.90;;;;;;5040197;28;20451;-72
2022/11/07 05:04:02;;;;;;;12.13;2.08;;;12.70;99.90;;;;;;5042067;28;20029;-73
2022/11/07 05:06:28;;;;;;;7.65;2.00;;;12.70;99.90;;;;;;5042777;28;20343;-73
2022/11/07 05:08:54;;;;;;;7.85;1.60;;;12.70;99.90;;;;;;5038123;28;20017;-73
2022/11/07 05:11:19;;;;;;;9.95;2.60;;;12.50;99.90;;;;;;5044312;28;20320;-72
2022/11/07 05:13:45;;;;;;;8.32;1.73;;;12.60;99.90;;;;;;5041203;28;20029;-72
2022/11/07 05:16:15;;;;;;;11.82;2.00;;;12.50;99.90;;;;;;5043987;28;20040;-71
2022/11/07 05:18:41;;;;;;;4.30;1.48;;;12.50;99.90;;;;;;5041100;28;20094;-76
2022/11/07 05:21:07;;;;;;;11.35;2.17;;;12.60;99.90;;;;;;5041731;28;20029;-73
2022/11/07 05:23:35;;;;;;;5.47;1.90;;;12.50;99.90;;;;;;5042126;28;20108;-72
2022/11/07 05:26:01;;;;;;;20.85;2.03;;;12.50;99.90;;;;;;5041314;28;20163;-74
2022/11/07 05:28:31;;;;;;;11.55;1.88;;;12.50;99.90;;;;;;5028647;28;20136;-76
2022/11/07 05:30:59;;;;;;;10.48;2.38;;;12.50;99.90;;;;;;5040720;28;20017;-75
2022/11/07 05:33:30;;;;;;;10.65;1.65;;;12.50;99.90;;;;;;5039835;28;20025;-75
2022/11/07 05:36:08;;;;;;;16.85;2.53;;;12.40;99.90;;;;;;5042499;28;20445;-73
2022/11/07 05:38:34;;;;;;;10.07;1.60;;;12.50;99.90;;;;;;5040267;28;20037;-77
2022/11/07 05:41:03;;;;;;;12.88;2.10;;;12.50;99.90;;;;;;5041089;28;20782;-75
2022/11/07 05:43:28;;;;;;;10.88;2.13;;;12.50;99.90;;;;;;5041366;28;20334;-72
2022/11/07 05:46:00;;;;;;;16.33;2.85;;;12.50;99.90;;;;;;5044110;28;20025;-72
2022/11/07 05:48:26;;;;;;;12.33;1.70;;;12.50;99.90;;;;;;5042537;28;20029;-75
2022/11/07 05:50:52;;;;;;;8.68;2.17;;;12.50;99.90;;;;;;5040126;28;20028;-74
2022/11/07 05:53:20;;;;;;;9.52;1.92;;;12.50;99.90;;;;;;5035821;28;20366;-74
2022/11/07 05:55:46;;;;;;;9.80;2.53;;;12.40;99.90;;;;;;5040662;28;20025;-75
2022/11/07 05:58:12;;;;;;;21.02;2.78;;;12.50;99.90;;;;;;5044706;28;20029;-72
2022/11/07 06:00:39;;;;;;;12.55;2.13;;;12.50;99.90;;;;;;5036666;28;20045;-75
2022/11/07 06:03:06;;;;;;;13.63;2.53;;;12.60;99.90;;;;;;5038272;28;20021;-73
2022/11/07 06:05:32;;;;;;;10.75;2.15;;;12.60;99.90;;;;;;5043153;28;20465;-72
2022/11/07 06:07:58;;;;;;;10.85;2.33;;;12.60;99.90;;;;;;5035450;28;20026;-75
2022/11/07 06:10:24;;;;;;;9.82;2.00;;;12.60;99.90;;;;;;5041309;28;20044;-72
2022/11/07 06:13:01;;;;;;;9.63;2.17;;;12.60;99.90;;;;;;5043305;28;20051;-74
2022/11/07 06:15:30;;;;;;;12.07;2.22;;;12.60;99.90;;;;;;5040998;28;20113;-74
2022/11/07 06:17:59;;;;;;;11.80;2.30;;;12.60;99.90;;;;;;5038790;28;20042;-73
2022/11/07 06:20:25;;;;;;;11.95;2.00;;;12.70;99.90;;;;;;5039392;28;20386;-73
2022/11/07 06:22:51;;;;;;;7.00;2.10;;;12.70;99.90;;;;;;5040638;28;20061;-73
2022/11/07 06:25:17;;;;;;;10.68;2.30;;;12.60;99.90;;;;;;5040550;28;20029;-73
2022/11/07 06:27:42;;;;;;;22.20;2.42;;;12.70;99.90;;;;;;5040386;28;20038;-73
2022/11/07 06:30:08;;;;;;;11.95;2.28;;;12.60;99.90;;;;;;5036584;28;20025;-72
2022/11/07 06:32:35;;;;;;;8.27;2.35;;;12.60;99.90;;;;;;5042664;28;20032;-77
2022/11/07 06:35:03;;;;;;;9.32;1.85;;;12.70;99.90;;;;;;5043608;28;20025;-73
2022/11/07 06:37:29;;;;;;;12.48;1.98;;;12.60;99.90;;;;;;5046138;28;20098;-73
2022/11/07 06:39:57;;;;;;;10.00;2.63;;;12.50;99.90;;;;;;5047812;28;20013;-75
2022/11/07 06:42:25;;;;;;;11.10;1.70;;;12.60;99.90;;;;;;5049153;28;20158;-73
2022/11/07 06:44:51;;;;;;;11.48;1.63;;;12.60;99.90;;;;;;5051260;28;20029;-71
2022/11/07 06:47:16;;;;;;;12.68;1.73;;;12.60;99.90;;;;;;5042224;28;20017;-76
2022/11/07 06:49:42;;;;;;;13.30;1.90;;;12.70;99.90;;;;;;5044806;28;20208;-76
2022/11/07 06:52:07;;;;;;;8.88;1.50;;;12.70;99.90;;;;;;5046336;28;20113;-73
2022/11/07 06:54:36;;;;;;;6.38;2.17;;;12.70;99.90;;;;;;5043105;28;20354;-76
2022/11/07 06:57:01;;;;;;;9.40;1.98;;;12.70;99.90;;;;;;5045579;28;20021;-75
2022/11/07 06:59:27;;;;;;;9.15;1.70;;;12.60;99.90;;;;;;5047090;28;20021;-76
2022/11/07 07:01:52;;;;;;;11.77;2.30;;;12.80;99.90;;;;;;5042208;28;20025;-70
2022/11/07 07:04:20;;;;;;;9.50;2.30;;;12.70;99.90;;;;;;5044208;28;20535;-70
2022/11/07 07:06:46;;;;;;;7.65;2.00;;;12.70;99.90;;;;;;5042141;28;20057;-73
2022/11/07 07:09:11;;;;;;;9.27;2.13;;;12.80;99.90;;;;;;5039802;28;20053;-73
2022/11/07 07:11:41;;;;;;;8.30;2.00;;;12.90;99.90;;;;;;5044835;28;20036;-74
2022/11/07 07:14:07;;;;;;;10.52;1.55;;;12.90;99.90;;;;;;5043181;28;20037;-74
2022/11/07 07:16:35;;;;;;;13.52;2.47;;;13.00;99.90;;;;;;5042881;28;20037;-72
2022/11/07 07:19:03;;;;;;;11.70;1.80;;;12.90;99.90;;;;;;5049299;28;20454;-73
2022/11/07 07:21:29;;;;;;;7.28;1.80;;;13.00;99.90;;;;;;5046113;28;20064;-72
2022/11/07 07:23:55;;;;;;;13.07;2.85;;;13.00;99.90;;;;;;5041113;28;20426;-75
2022/11/07 07:26:23;;;;;;;7.90;2.25;;;13.10;99.90;;;;;;5046262;28;20460;-72
2022/11/07 07:28:50;;;;;;;8.65;1.55;;;13.10;99.90;;;;;;5043794;28;20041;-75
2022/11/07 07:31:22;;;;;;;16.73;2.20;;;13.10;99.90;;;;;;5042726;28;20065;-72
2022/11/07 07:33:48;;;;;;;8.47;1.87;;;13.20;99.90;;;;;;5032334;28;20496;-75
2022/11/07 07:36:14;;;;;;;10.45;2.00;;;13.30;99.90;;;;;;5040955;28;20103;-73
2022/11/07 07:38:39;;;;;;;7.93;1.52;;;13.40;99.90;;;;;;5040788;28;20131;-75
2022/11/07 07:41:05;;;;;;;17.30;1.98;;;13.40;99.90;;;;;;5048546;28;20032;-71
2022/11/07 07:43:34;;;;;;;9.00;2.13;;;13.40;99.90;;;;;;5042931;28;20037;-73
2022/11/07 07:46:02;;;;;;;16.67;2.28;;;13.50;99.90;;;;;;5042506;28;20052;-69
2022/11/07 07:48:28;;;;;;;13.02;2.53;;;13.50;99.90;;;;;;5041148;28;20104;-71
2022/11/07 07:50:54;;;;;;;11.75;1.77;;;13.60;99.90;;;;;;5042172;28;20447;-76
2022/11/07 07:53:20;;;;;;;17.40;1.90;;;13.70;99.90;;;;;;5046988;28;20044;-75
2022/11/07 07:55:45;;;;;;;8.15;1.65;;;13.70;99.90;;;;;;5052502;28;20100;-76
2022/11/07 07:58:12;;;;;;;7.57;1.85;;;13.80;99.90;;;;;;5047792;28;20035;-74
2022/11/07 08:00:38;;;;;;;10.77;1.88;;;13.80;99.90;;;;;;5048411;28;20025;-71
2022/11/07 08:03:10;;;;;;;9.68;1.33;;;13.80;99.90;;;;;;5042653;28;20069;-76
2022/11/07 08:05:38;;;;;;;12.10;2.13;;;13.90;99.90;;;;;;5044028;28;20083;-77
2022/11/07 08:08:07;;;;;;;12.98;1.48;;;13.90;99.90;;;;;;5043386;28;20033;-73
2022/11/07 08:10:35;;;;;;;34.22;10.80;;;13.80;99.90;;;;;;5040567;28;20017;-70
2022/11/07 08:13:03;;;;;;;23.15;6.07;;;13.90;99.90;;;;;;5038939;28;20156;-73
2022/11/07 08:15:31;;;;;;;5.50;1.90;;;14.10;99.90;;;;;;5048515;28;20030;-76
2022/11/07 08:18:01;;;;;;;12.80;2.25;;;14.00;99.90;;;;;;5046127;28;20047;-72
2022/11/07 08:20:26;;;;;;;11.70;1.75;;;14.10;99.90;;;;;;5042961;28;20095;-76
2022/11/07 08:23:05;;;;;;;11.70;1.70;;;14.10;99.90;;;;;;5041360;28;20368;-75
2022/11/07 08:25:31;;;;;;;12.88;1.67;;;14.20;99.90;;;;;;5041466;28;20014;-75
2022/11/07 08:28:02;;;;;;;10.30;1.90;;;14.20;99.90;;;;;;5040506;28;20408;-71
2022/11/07 08:30:30;;;;;;;11.00;1.98;;;14.20;99.90;;;;;;5043667;28;20076;-76
2022/11/07 08:33:01;;;;;;;7.88;1.52;;;14.30;99.90;;;;;;5042995;28;20060;-75
2022/11/07 08:35:28;;;;;;;9.02;1.80;;;14.40;99.90;;;;;;5045523;28;20020;-76
2022/11/07 08:37:54;;;;;;;11.52;2.13;;;14.60;99.90;;;;;;5046060;28;20065;-75
2022/11/07 08:40:20;;;;;;;11.25;2.15;;;14.50;99.90;;;;;;5052089;28;20041;-74
2022/11/07 08:42:45;;;;;;;8.63;1.65;;;14.60;99.90;;;;;;5043511;28;20033;-77
2022/11/07 08:45:11;;;;;;;9.88;1.50;;;14.60;99.90;;;;;;5042541;28;20021;-73
2022/11/07 08:47:37;;;;;;;12.95;2.15;;;14.60;99.90;;;;;;5043698;28;20083;-77
2022/11/07 08:50:03;;;;;;;11.00;2.53;;;14.70;99.90;;;;;;5046484;28;20021;-76
2022/11/07 08:52:29;;;;;;;16.77;2.50;;;14.80;99.90;;;;;;5043057;28;20086;-76
2022/11/07 08:54:55;;;;;;;16.23;2.10;;;14.90;99.90;;;;;;5045045;28;20021;-75
2022/11/07 08:57:22;;;;;;;12.23;1.65;;;15.00;99.90;;;;;;5038819;28;20092;-74
2022/11/07 08:59:48;;;;;;;9.80;2.05;;;15.10;99.90;;;;;;5041534;28;20195;-75
2022/11/07 09:02:14;;;;;;;8.85;1.90;;;15.10;99.90;;;;;;5042165;28;20101;-74
2022/11/07 09:04:42;;;;;;;19.98;1.92;;;15.10;99.90;;;;;;5047541;28;20036;-75
2022/11/07 09:07:08;;;;;;;17.35;2.17;;;15.20;99.90;;;;;;5039992;28;20070;-78
2022/11/07 09:09:33;;;;;;;18.45;2.22;;;15.30;99.90;;;;;;5042315;28;20025;-71
2022/11/07 09:12:01;;;;;;;15.18;2.20;;;15.20;99.90;;;;;;5042280;28;20028;-72
2022/11/07 09:14:27;;;;;;;11.15;1.70;;;15.10;99.90;;;;;;5039920;28;20021;-74
2022/11/07 09:16:53;;;;;;;7.18;1.63;;;15.10;99.90;;;;;;5039064;28;20466;-76
2022/11/07 09:19:18;;;;;;;8.55;1.95;;;15.10;99.90;;;;;;5037489;28;20461;-71
2022/11/07 09:21:44;;;;;;;10.95;1.98;;;15.20;99.90;;;;;;5038142;28;20044;-71
2022/11/07 09:24:10;;;;;;;12.95;2.58;;;15.10;99.90;;;;;;5038136;28;20025;-75
2022/11/07 09:26:38;;;;;;;9.98;1.98;;;15.10;99.90;;;;;;5042678;28;20394;-75
2022/11/07 09:29:04;;;;;;;8.85;2.03;;;15.20;99.90;;;;;;5044266;28;20026;-76
2022/11/07 09:31:30;;;;;;;5.07;1.52;;;15.20;99.90;;;;;;5040729;28;20040;-76
2022/11/07 09:33:55;;;;;;;7.63;1.15;;;15.30;99.90;;;;;;5040375;28;20386;-74
2022/11/07 09:36:22;;;;;;;14.32;2.22;;;15.20;99.90;;;;;;5039643;28;20029;-76
2022/11/07 09:38:49;;;;;;;16.83;2.08;;;15.20;99.90;;;;;;5045256;28;20029;-76
2022/11/07 09:41:23;;;;;;;11.55;2.00;;;15.30;99.90;;;;;;5041392;28;20024;-76
2022/11/07 09:44:16;;;;;;;9.20;1.92;;;15.30;99.90;;;;;;5046808;28;20056;-76
2022/11/07 09:47:15;;;;;;;14.70;1.95;;;15.30;99.90;;;;;;5039170;28;20749;-76
2022/11/07 09:49:54;;;;;;;7.25;1.42;;;15.30;99.90;;;;;;5047648;28;20451;-73
2022/11/07 09:52:37;;;;;;;8.15;1.98;;;15.30;99.90;;;;;;5027419;28;20373;-75
2022/11/07 09:55:11;;;;;;;11.05;1.85;;;15.40;99.90;;;;;;5042906;28;20053;-72
2022/11/07 09:57:37;;;;;;;6.97;1.70;;;15.40;99.90;;;;;;5041122;28;20025;-76
2022/11/07 10:00:13;;;;;;;7.60;1.42;;;15.50;99.90;;;;;;5041828;28;20074;-76
2022/11/07 10:02:43;;;;;;;12.43;1.77;;;15.60;99.90;;;;;;5040168;28;20029;-76
2022/11/07 10:05:13;;;;;;;11.43;2.58;;;15.60;99.90;;;;;;5040026;28;20029;-72
2022/11/07 10:07:56;;;;;;;36.60;12.18;;;15.50;99.90;;;;;;5039013;28;20026;-75
2022/11/07 10:10:43;;;;;;;20.67;2.90;;;15.60;99.90;;;;;;5036258;28;20108;-75
2022/11/07 10:13:51;;;;;;;31.77;7.00;;;15.70;99.90;;;;;;5036688;28;20056;-71
2022/11/07 10:16:46;;;;;;;13.30;2.53;;;15.70;99.90;;;;;;5031028;28;20052;-74
2022/11/07 10:19:27;;;;;;;8.15;2.00;;;15.60;99.90;;;;;;5040480;28;20033;-75
2022/11/07 10:22:08;;;;;;;9.13;1.98;;;15.60;99.90;;;;;;5046708;28;20179;-75
2022/11/07 10:24:45;;;;;;;13.93;1.90;;;15.60;99.90;;;;;;5040567;28;20131;-76
2022/11/07 10:27:12;;;;;;;8.05;1.40;;;15.60;99.90;;;;;;5036572;28;20044;-72
2022/11/07 10:29:52;;;;;;;11.40;1.92;;;15.40;99.90;;;;;;5038666;28;20033;-74
2022/11/07 10:32:39;;;;;;;11.35;1.88;;;15.30;99.90;;;;;;5036892;28;20080;-72
2022/11/07 10:35:05;;;;;;;6.60;1.38;;;15.30;99.90;;;;;;5041672;28;20022;-77
2022/11/07 10:37:30;;;;;;;18.02;2.10;;;15.20;99.90;;;;;;5041222;28;20092;-72
2022/11/07 10:39:56;;;;;;;11.70;1.50;;;15.30;99.90;;;;;;5042253;28;20028;-73
2022/11/07 10:42:26;;;;;;;25.23;6.63;;;15.20;99.90;;;;;;5043038;28;20036;-75
2022/11/07 10:44:55;;;;;;;10.18;2.08;;;15.30;99.90;;;;;;5043675;28;20037;-74
2022/11/07 10:47:23;;;;;;;7.13;2.28;;;15.20;99.90;;;;;;5045640;28;20025;-77
2022/11/07 10:49:58;;;;;;;14.90;2.40;;;15.60;99.90;;;;;;5040130;28;20029;-73
2022/11/07 10:52:25;;;;;;;11.77;1.70;;;15.70;99.90;;;;;;5035257;28;20081;-77
2022/11/07 10:55:03;;;;;;;9.75;1.80;;;16.00;99.90;;;;;;5041634;28;20025;-73
2022/11/07 10:57:34;;;;;;;11.98;2.05;;;16.20;99.90;;;;;;5048272;28;20029;-77
2022/11/07 11:00:00;;;;;;;24.27;2.42;;;16.30;99.90;;;;;;5040972;28;20031;-73
2022/11/07 11:02:47;;;;;;;13.57;2.05;;;16.40;99.90;;;;;;5045443;28;20021;-76
2022/11/07 11:05:23;;;;;;;9.90;1.90;;;16.60;99.90;;;;;;5040707;28;20021;-74
2022/11/07 11:07:48;;;;;;;7.88;1.50;;;16.40;99.90;;;;;;5044823;28;20087;-73
2022/11/07 11:10:30;;;;;;;16.08;2.08;;;16.30;99.90;;;;;;5038380;28;20102;-76
2022/11/07 11:12:56;;;;;;;8.45;1.70;;;16.30;99.90;;;;;;5036567;28;20076;-73
2022/11/07 11:15:25;;;;;;;11.73;2.17;;;16.20;99.90;;;;;;5038683;28;20025;-76
2022/11/07 11:18:04;;;;;;;13.02;2.00;;;16.00;99.90;;;;;;5048373;28;20043;-73
2022/11/07 11:20:32;;;;;;;12.68;1.88;;;16.00;99.90;;;;;;5042043;28;20021;-77
2022/11/07 11:23:00;;;;;;;15.10;2.35;;;16.10;99.90;;;;;;5049750;28;20079;-77
2022/11/07 11:25:26;;;;;;;17.77;2.45;;;15.90;99.90;;;;;;5047075;28;20022;-71
2022/11/07 11:28:04;;;;;;;12.70;1.70;;;15.90;99.90;;;;;;5048584;28;20046;-76
2022/11/07 11:30:34;;;;;;;7.15;1.67;;;15.90;99.90;;;;;;5047498;28;20017;-73
2022/11/07 11:33:02;;;;;;;15.73;2.53;;;15.80;99.90;;;;;;5046760;28;20031;-72
2022/11/07 11:35:35;;;;;;;15.13;2.33;;;15.80;99.90;;;;;;5044509;28;20155;-77
2022/11/07 11:38:42;;;;;;;10.55;2.15;;;15.80;99.90;;;;;;5051594;28;20036;-76
2022/11/07 11:41:30;;;;;;;11.75;2.17;;;15.80;99.90;;;;;;5026638;28;20084;-76
2022/11/07 11:44:11;;;;;;;10.48;2.05;;;15.80;99.90;;;;;;5046129;28;20060;-75
2022/11/07 11:46:46;;;;;;;9.02;1.88;;;16.00;99.90;;;;;;5046769;28;20020;-77
2022/11/07 11:49:21;;;;;;;11.98;2.05;;;16.30;99.90;;;;;;5045841;28;20485;-75
2022/11/07 11:51:55;;;;;;;10.80;2.00;;;16.60;99.90;;;;;;5046487;28;20033;-77
2022/11/07 11:54:23;;;;;;;51.78;7.82;;;17.00;99.90;;;;;;5049403;28;20039;-76
2022/11/07 11:57:10;;;;;;;11.75;2.60;;;17.20;99.90;;;;;;5041967;28;20035;-74
2022/11/07 12:00:06;;;;;;;11.93;2.47;;;17.30;99.90;;;;;;5048741;28;20132;-75
2022/11/07 12:02:50;;;;;;;20.17;5.30;;;17.30;99.90;;;;;;5040128;28;20385;-72
2022/11/07 12:05:26;;;;;;;16.08;2.08;;;17.40;99.90;;;;;;5041309;28;20585;-72
2022/11/07 12:07:54;;;;;;;11.65;2.17;;;17.00;99.90;;;;;;5043938;28;20103;-74
2022/11/07 12:10:32;;;;;;;17.23;2.55;;;16.90;99.90;;;;;;5041132;28;20094;-76
2022/11/07 12:13:08;;;;;;;15.75;2.40;;;16.90;99.90;;;;;;5055908;28;20098;-74
2022/11/07 12:16:12;;;;;;;13.60;1.98;;;16.90;99.90;;;;;;5050407;28;20040;-76
2022/11/07 12:19:04;;;;;;;15.88;2.47;;;17.20;99.90;;;;;;5007271;28;20026;-72
2022/11/07 12:21:32;;;;;;;13.00;1.73;;;17.10;99.90;;;;;;5044356;28;20083;-75
2022/11/07 12:23:58;;;;;;;17.20;2.13;;;17.00;99.90;;;;;;5038339;28;20028;-76
2022/11/07 12:26:40;;;;;;;15.30;1.58;;;17.00;99.90;;;;;;5041837;28;20020;-75
2022/11/07 12:29:27;;;;;;;169.95;65.63;;;17.00;99.90;;;;;;5042580;28;20021;-77
2022/11/07 12:32:27;;;;;;;9.93;2.20;;;17.10;99.90;;;;;;5054901;28;20025;-76
2022/11/07 12:35:21;;;;;;;10.27;1.67;;;17.10;99.90;;;;;;5037808;28;20025;-77
2022/11/07 12:37:51;;;;;;;13.05;2.00;;;17.10;99.90;;;;;;5033984;28;20335;-73
2022/11/07 12:40:25;;;;;;;17.52;2.20;;;17.20;99.90;;;;;;5040339;28;20112;-75
2022/11/07 12:43:20;;;;;;;16.33;1.85;;;17.50;99.90;;;;;;5044976;28;20033;-74
2022/11/07 12:45:52;;;;;;;7.95;1.95;;;17.80;99.90;;;;;;5042971;28;20025;-74
2022/11/07 12:48:43;;;;;;;23.30;2.67;;;18.00;99.90;;;;;;5047178;28;20033;-77
2022/11/07 12:51:51;;;;;;;10.63;2.08;;;18.40;99.90;;;;;;5039665;28;20030;-76
2022/11/07 12:54:57;;;;;;;12.95;2.40;;;18.60;99.90;;;;;;5040895;28;20027;-75
2022/11/07 12:57:31;;;;;;;23.67;7.32;;;18.60;99.90;;;;;;5039641;28;20041;-71
2022/11/07 13:00:23;;;;;;;7.78;1.63;;;18.40;99.90;;;;;;5040473;28;20025;-76
2022/11/07 13:03:20;;;;;;;11.60;2.22;;;18.20;99.90;;;;;;5037443;28;20663;-75
2022/11/07 13:06:14;;;;;;;16.67;2.40;;;17.90;99.90;;;;;;5038716;28;20106;-76
2022/11/07 13:08:51;;;;;;;14.25;2.63;;;17.60;99.90;;;;;;5046094;28;20030;-77